Time;durP1;ratioP1;P1;durP2;ratioP2;P2;SDS_P1;SDS_P2;PMS_P1;PMS_P2;Temp;Humidity;BMP_temperature;BMP_pressure;BME280_temperature;BME280_humidity;BME280_pressure;Samples;Min_cycle;Max_cycle;Signal;HPM_P1;HPM_P2
2024/01/20 00:00:14;;;;;;;;;;;;;;;-2.67;100.00;102582.00;5019617;28;19917;-69
2024/01/20 00:02:39;;;;;;;;;;;;;;;-2.65;100.00;102581.31;5032391;28;19920;-69
2024/01/20 00:05:05;;;;;;;;;;;;;;;-2.61;100.00;102577.31;5055868;28;19912;-69
2024/01/20 00:07:31;;;;;;;;;;;;;;;-2.61;100.00;102569.63;5035966;28;19924;-69
2024/01/20 00:09:58;;;;;;;;;;;;;;;-2.55;100.00;102582.88;5032545;28;19925;-69
2024/01/20 00:12:24;;;;;;;;;;;;;;;-2.50;100.00;102584.09;5038044;28;19920;-69
2024/01/20 00:14:49;;;;;;;;;;;;;;;-2.48;100.00;102579.06;5039709;28;20356;-69
2024/01/20 00:17:15;;;;;;;;;;;;;;;-2.45;100.00;102584.41;5067999;28;19971;-69
2024/01/20 00:19:40;;;;;;;;;;;;;;;-2.47;100.00;102581.72;5039284;28;20003;-69
2024/01/20 00:22:06;;;;;;;;;;;;;;;-2.44;100.00;102589.63;5047071;28;19925;-68
2024/01/20 00:24:31;;;;;;;;;;;;;;;-2.43;100.00;102585.38;5038231;28;19939;-69
2024/01/20 00:26:59;;;;;;;;;;;;;;;-2.41;100.00;102588.97;5061403;28;19920;-69
2024/01/20 00:29:26;;;;;;;;;;;;;;;-2.37;100.00;102595.19;5038038;28;19939;-69
2024/01/20 00:31:51;;;;;;;;;;;;;;;-2.35;100.00;102596.19;5036686;28;20331;-69
2024/01/20 00:34:17;;;;;;;;;;;;;;;-2.33;100.00;102594.63;5049340;28;19924;-69
2024/01/20 00:36:42;;;;;;;;;;;;;;;-2.30;100.00;102597.41;5050744;28;20335;-69
2024/01/20 00:39:08;;;;;;;;;;;;;;;-2.31;100.00;102590.50;5055268;28;20355;-70
2024/01/20 00:41:33;;;;;;;;;;;;;;;-2.29;100.00;102576.94;5045371;28;19923;-70
2024/01/20 00:43:58;;;;;;;;;;;;;;;-2.32;100.00;102579.31;5027115;28;20372;-69
2024/01/20 00:46:24;;;;;;;;;;;;;;;-2.22;100.00;102577.41;5036618;28;19928;-69
2024/01/20 00:48:52;;;;;;;;;;;;;;;-2.26;100.00;102576.28;5028086;28;19985;-69
2024/01/20 00:51:18;;;;;;;;;;;;;;;-2.28;100.00;102583.88;5050637;28;20011;-69
2024/01/20 00:53:43;;;;;;;;;;;;;;;-2.23;100.00;102576.47;5044101;28;20054;-69
2024/01/20 00:56:08;;;;;;;;;;;;;;;-2.28;100.00;102573.59;5050671;28;20015;-69
2024/01/20 00:58:34;;;;;;;;;;;;;;;-2.29;100.00;102576.06;5043535;28;19924;-69
2024/01/20 01:00:59;;;;;;;;;;;;;;;-2.27;100.00;102577.97;5058266;28;19913;-69
2024/01/20 01:03:26;;;;;;;;;;;;;;;-2.32;100.00;102574.19;5053577;28;19916;-69
2024/01/20 01:05:51;;;;;;;;;;;;;;;-2.33;100.00;102584.34;5046749;28;19944;-69
2024/01/20 01:08:17;;;;;;;;;;;;;;;-2.36;100.00;102577.31;5060874;28;20069;-69
2024/01/20 01:10:42;;;;;;;;;;;;;;;-2.35;100.00;102588.50;5050870;28;19916;-69
2024/01/20 01:13:08;;;;;;;;;;;;;;;-2.35;100.00;102576.53;5053468;28;19916;-69
2024/01/20 01:15:33;;;;;;;;;;;;;;;-2.30;100.00;102577.75;5059907;28;20277;-69
2024/01/20 01:17:58;;;;;;;;;;;;;;;-2.36;100.00;102573.88;5047075;28;20314;-69
2024/01/20 01:20:24;;;;;;;;;;;;;;;-2.37;100.00;102577.22;5049627;28;19920;-69
2024/01/20 01:22:51;;;;;;;;;;;;;;;-2.38;100.00;102570.31;5051308;28;19967;-69
2024/01/20 01:25:16;;;;;;;;;;;;;;;-2.37;100.00;102577.22;5034980;28;19960;-69
2024/01/20 01:27:42;;;;;;;;;;;;;;;-2.35;100.00;102576.53;5045154;28;19960;-69
2024/01/20 01:30:08;;;;;;;;;;;;;;;-2.35;100.00;102579.09;5042854;28;20324;-69
2024/01/20 01:32:34;;;;;;;;;;;;;;;-2.34;100.00;102577.41;5051475;28;20295;-69
2024/01/20 01:35:00;;;;;;;;;;;;;;;-2.34;100.00;102583.47;5051083;28;19956;-69
2024/01/20 01:37:25;;;;;;;;;;;;;;;-2.35;100.00;102585.94;5069225;28;19968;-69
2024/01/20 01:39:51;;;;;;;;;;;;;;;-2.34;100.00;102595.41;5047791;28;19916;-69
2024/01/20 01:42:16;;;;;;;;;;;;;;;-2.36;100.00;102589.28;5053194;28;19927;-69
2024/01/20 01:44:42;;;;;;;;;;;;;;;-2.35;100.00;102596.19;5034575;28;19917;-69
2024/01/20 01:47:07;;;;;;;;;;;;;;;-2.37;100.00;102592.63;5050467;28;19928;-69
2024/01/20 01:49:32;;;;;;;;;;;;;;;-2.35;100.00;102607.34;5035486;28;19970;-69
2024/01/20 01:51:58;;;;;;;;;;;;;;;-2.40;100.00;102602.69;5053486;28;19920;-69
2024/01/20 01:54:24;;;;;;;;;;;;;;;-2.42;100.00;102611.97;5037832;28;20312;-69
2024/01/20 01:56:50;;;;;;;;;;;;;;;-2.46;100.00;102608.28;5061289;28;19925;-69
2024/01/20 01:59:16;;;;;;;;;;;;;;;-2.49;100.00;102608.94;5052518;28;19916;-69
2024/01/20 02:01:42;;;;;;;;;;;;;;;-2.50;100.00;102619.13;5058741;28;20368;-69
2024/01/20 02:04:07;;;;;;;;;;;;;;;-2.49;100.00;102621.78;5030855;28;19947;-69
2024/01/20 02:06:33;;;;;;;;;;;;;;;-2.48;100.00;102623.56;5044718;28;19933;-69
2024/01/20 02:08:58;;;;;;;;;;;;;;;-2.47;100.00;102621.91;5069479;28;19929;-69
2024/01/20 02:11:25;;;;;;;;;;;;;;;-2.52;100.00;102624.16;5052685;28;19999;-69
2024/01/20 02:13:50;;;;;;;;;;;;;;;-2.46;100.00;102624.59;5027693;28;19921;-69
2024/01/20 02:16:16;;;;;;;;;;;;;;;-2.46;100.00;102628.81;5035472;28;19932;-70
2024/01/20 02:18:41;;;;;;;;;;;;;;;-2.52;100.00;102638.66;5033842;28;19987;-70
2024/01/20 02:21:07;;;;;;;;;;;;;;;-2.55;100.00;102629.06;5049589;28;19924;-70
2024/01/20 02:23:37;;;;;;;;;;;;;;;-2.54;100.00;102635.06;5045240;28;19921;-71
2024/01/20 02:26:02;;;;;;;;;;;;;;;-2.48;100.00;102630.41;5054099;28;20287;-70
2024/01/20 02:28:28;;;;;;;;;;;;;;;-2.50;100.00;102632.88;5052718;28;19932;-70
2024/01/20 02:30:53;;;;;;;;;;;;;;;-2.52;100.00;102639.53;5030186;28;20245;-70
2024/01/20 02:33:19;;;;;;;;;;;;;;;-2.50;100.00;102640.56;5040862;28;20291;-70
2024/01/20 02:35:44;;;;;;;;;;;;;;;-2.48;100.00;102638.97;5043574;28;20379;-70
2024/01/20 02:38:10;;;;;;;;;;;;;;;-2.49;100.00;102639.75;5052742;28;20394;-70
2024/01/20 02:40:35;;;;;;;;;;;;;;;-2.50;100.00;102639.66;5050489;28;20368;-70
2024/01/20 02:43:01;;;;;;;;;;;;;;;-2.50;100.00;102642.22;5036220;28;20272;-70
2024/01/20 02:45:26;;;;;;;;;;;;;;;-2.54;100.00;102630.84;5037301;28;19964;-70
2024/01/20 02:47:54;;;;;;;;;;;;;;;-2.54;100.00;102630.84;5063192;28;19916;-71
2024/01/20 02:50:20;;;;;;;;;;;;;;;-2.59;100.00;102628.75;5037084;28;19921;-70
2024/01/20 02:52:48;;;;;;;;;;;;;;;-2.61;100.00;102637.22;5042096;28;19923;-71
2024/01/20 02:55:13;;;;;;;;;;;;;;;-2.61;100.00;102631.22;5054900;28;20442;-71
2024/01/20 02:57:39;;;;;;;;;;;;;;;-2.59;100.00;102626.19;5042741;28;19925;-70
2024/01/20 03:00:07;;;;;;;;;;;;;;;-2.63;100.00;102625.06;5049350;28;19924;-70
2024/01/20 03:02:32;;;;;;;;;;;;;;;-2.63;100.00;102625.06;5036843;28;19926;-70
2024/01/20 03:04:59;;;;;;;;;;;;;;;-2.65;100.00;102621.50;5073627;28;19916;-70
2024/01/20 03:07:24;;;;;;;;;;;;;;;-2.68;100.00;102626.44;5046657;28;20427;-70
2024/01/20 03:09:50;;;;;;;;;;;;;;;-2.67;100.00;102639.38;5038061;28;19931;-70
2024/01/20 03:12:16;;;;;;;;;;;;;;;-2.74;100.00;102639.72;5030650;28;19975;-70
2024/01/20 03:14:41;;;;;;;;;;;;;;;-2.76;100.00;102648.06;5031781;28;19940;-70
2024/01/20 03:17:06;;;;;;;;;;;;;;;-2.72;100.00;102650.09;5046558;28;19924;-70
2024/01/20 03:19:32;;;;;;;;;;;;;;;-2.70;100.00;102651.06;5056453;28;19955;-70
2024/01/20 03:21:57;;;;;;;;;;;;;;;-2.62;100.00;102657.66;5054553;28;20321;-70
2024/01/20 03:24:23;;;;;;;;;;;;;;;-2.67;100.00;102654.75;5046420;28;19924;-70
2024/01/20 03:26:49;;;;;;;;;;;;;;;-2.65;100.00;102652.31;5065013;28;19948;-70
2024/01/20 03:29:15;;;;;;;;;;;;;;;-2.63;100.00;102650.72;5047126;28;19933;-70
2024/01/20 03:31:40;;;;;;;;;;;;;;;-2.50;100.00;102658.53;5035009;28;20368;-70
2024/01/20 03:34:06;;;;;;;;;;;;;;;-2.51;100.00;102661.88;5055088;28;19920;-71
2024/01/20 03:36:31;;;;;;;;;;;;;;;-2.50;100.00;102653.41;5046199;28;19955;-69
2024/01/20 03:38:57;;;;;;;;;;;;;;;-2.53;100.00;102653.19;5034009;28;20292;-70
2024/01/20 03:41:22;;;;;;;;;;;;;;;-2.47;100.00;102652.69;5049866;28;20392;-70
2024/01/20 03:43:48;;;;;;;;;;;;;;;-2.47;100.00;102651.03;5040219;28;20291;-70
2024/01/20 03:46:16;;;;;;;;;;;;;;;-2.45;100.00;102658.84;5073687;28;19924;-70
2024/01/20 03:48:42;;;;;;;;;;;;;;;-2.45;100.00;102657.16;5061585;28;20042;-71
2024/01/20 03:51:08;;;;;;;;;;;;;;;-2.44;100.00;102648.69;5043224;28;20036;-70
2024/01/20 03:53:34;;;;;;;;;;;;;;;-2.40;100.00;102664.31;5072744;28;19966;-70
2024/01/20 03:56:00;;;;;;;;;;;;;;;-2.40;100.00;102666.88;5059180;28;20011;-70
2024/01/20 03:58:26;;;;;;;;;;;;;;;-2.42;100.00;102659.06;5040445;28;19932;-70
2024/01/20 04:00:51;;;;;;;;;;;;;;;-2.39;100.00;102660.97;5059387;28;19920;-71
2024/01/20 04:03:16;;;;;;;;;;;;;;;-2.39;100.00;102655.81;5055487;28;20387;-70
2024/01/20 04:05:42;;;;;;;;;;;;;;;-2.39;100.00;102666.97;5049846;28;19931;-70
2024/01/20 04:08:07;;;;;;;;;;;;;;;-2.39;100.00;102655.81;5043113;28;19948;-70
2024/01/20 04:10:32;;;;;;;;;;;;;;;-2.40;100.00;102654.91;5046424;28;19974;-69
2024/01/20 04:12:58;;;;;;;;;;;;;;;-2.42;100.00;102656.50;5043899;28;19966;-69
2024/01/20 04:15:23;;;;;;;;;;;;;;;-2.44;100.00;102653.81;5032194;28;19928;-69
2024/01/20 04:17:48;;;;;;;;;;;;;;;-2.44;100.00;102658.06;5060799;28;19925;-69
2024/01/20 04:20:14;;;;;;;;;;;;;;;-2.44;100.00;102666.66;5059796;28;19931;-69
2024/01/20 04:22:39;;;;;;;;;;;;;;;-2.40;100.00;102664.31;5036766;28;19925;-69
2024/01/20 04:25:05;;;;;;;;;;;;;;;-2.42;100.00;102661.63;5035797;28;19931;-69
2024/01/20 04:27:30;;;;;;;;;;;;;;;-2.40;100.00;102669.44;5037751;28;19974;-69
2024/01/20 04:29:56;;;;;;;;;;;;;;;-2.42;100.00;102664.19;5056397;28;20011;-69
2024/01/20 04:32:22;;;;;;;;;;;;;;;-2.46;100.00;102670.81;5051286;28;20353;-69
2024/01/20 04:34:47;;;;;;;;;;;;;;;-2.51;100.00;102671.25;5049272;28;19999;-69
2024/01/20 04:37:12;;;;;;;;;;;;;;;-2.54;100.00;102681.28;5038164;28;20400;-69
2024/01/20 04:39:38;;;;;;;;;;;;;;;-2.54;100.00;102679.63;5025247;28;19925;-69
2024/01/20 04:42:03;;;;;;;;;;;;;;;-2.54;100.00;102682.19;5035664;28;20350;-69
2024/01/20 04:44:28;;;;;;;;;;;;;;;-2.51;100.00;102687.56;5052073;28;19917;-69
2024/01/20 04:46:54;;;;;;;;;;;;;;;-2.49;100.00;102683.41;5040282;28;19925;-69
2024/01/20 04:49:19;;;;;;;;;;;;;;;-2.46;100.00;102693.91;5019851;28;19933;-69
2024/01/20 04:51:46;;;;;;;;;;;;;;;-2.43;100.00;102680.38;5059254;28;19966;-69
2024/01/20 04:54:11;;;;;;;;;;;;;;;-2.42;100.00;102686.44;5036107;28;19924;-69
2024/01/20 04:56:36;;;;;;;;;;;;;;;-2.42;100.00;102689.00;5041907;28;20007;-69
2024/01/20 04:59:01;;;;;;;;;;;;;;;-2.43;100.00;102693.22;5018705;28;19917;-69
2024/01/20 05:01:27;;;;;;;;;;;;;;;-2.44;100.00;102689.78;5026818;28;19920;-69
2024/01/20 05:03:52;;;;;;;;;;;;;;;-2.42;100.00;102696.69;5038907;28;19921;-69
2024/01/20 05:06:18;;;;;;;;;;;;;;;-2.39;100.00;102689.22;5054266;28;20360;-69
2024/01/20 05:08:43;;;;;;;;;;;;;;;-2.41;100.00;102694.25;5037807;28;19920;-69
2024/01/20 05:11:09;;;;;;;;;;;;;;;-2.39;100.00;102690.09;5054556;28;20272;-69
2024/01/20 05:13:34;;;;;;;;;;;;;;;-2.32;100.00;102684.59;5070708;28;20054;-69
2024/01/20 05:15:59;;;;;;;;;;;;;;;-2.35;100.00;102694.66;5064593;28;20336;-70
2024/01/20 05:18:25;;;;;;;;;;;;;;;-2.37;100.00;102695.31;5037423;28;20035;-70
2024/01/20 05:20:52;;;;;;;;;;;;;;;-2.39;100.00;102702.03;5066865;28;20054;-70
2024/01/20 05:23:18;;;;;;;;;;;;;;;-2.41;100.00;102701.03;5045714;28;19973;-70
2024/01/20 05:25:43;;;;;;;;;;;;;;;-2.41;100.00;102706.16;5058504;28;19920;-70
2024/01/20 05:28:09;;;;;;;;;;;;;;;-2.41;100.00;102708.72;5064207;28;20023;-70
2024/01/20 05:30:34;;;;;;;;;;;;;;;-2.36;100.00;102717.66;5037174;28;19990;-70
2024/01/20 05:32:59;;;;;;;;;;;;;;;-2.36;100.00;102712.53;5067767;28;19965;-70
2024/01/20 05:35:25;;;;;;;;;;;;;;;-2.37;100.00;102715.88;5045142;28;19955;-70
2024/01/20 05:37:50;;;;;;;;;;;;;;;-2.38;100.00;102720.13;5066076;28;19970;-70
2024/01/20 05:40:15;;;;;;;;;;;;;;;-2.37;100.00;102716.78;5055105;28;19917;-71
2024/01/20 05:42:41;;;;;;;;;;;;;;;-2.41;100.00;102729.25;5043027;28;19928;-70
2024/01/20 05:45:09;;;;;;;;;;;;;;;-2.43;100.00;102729.16;5038050;28;19925;-70
2024/01/20 05:47:34;;;;;;;;;;;;;;;-2.47;100.00;102722.03;5041832;28;20373;-70
2024/01/20 05:50:00;;;;;;;;;;;;;;;-2.47;100.00;102724.59;5052673;28;20065;-70
2024/01/20 05:52:25;;;;;;;;;;;;;;;-2.47;100.00;102725.50;5043232;28;20015;-70
2024/01/20 05:54:50;;;;;;;;;;;;;;;-2.44;100.00;102729.97;5070795;28;19971;-70
2024/01/20 05:57:16;;;;;;;;;;;;;;;-2.45;100.00;102721.34;5044204;28;20164;-70
2024/01/20 05:59:41;;;;;;;;;;;;;;;-2.46;100.00;102722.16;5056514;28;19931;-70
2024/01/20 06:02:07;;;;;;;;;;;;;;;-2.45;100.00;102729.06;5049729;28;19924;-70
2024/01/20 06:04:32;;;;;;;;;;;;;;;-2.44;100.00;102735.09;5034687;28;20336;-70
2024/01/20 06:06:57;;;;;;;;;;;;;;;-2.45;100.00;102735.88;5038412;28;19920;-70
2024/01/20 06:09:23;;;;;;;;;;;;;;;-2.45;100.00;102738.44;5037865;28;19928;-71
2024/01/20 06:11:49;;;;;;;;;;;;;;;-2.45;100.00;102739.31;5052043;28;19917;-70
2024/01/20 06:14:14;;;;;;;;;;;;;;;-2.42;100.00;102740.34;5060895;28;20011;-70
2024/01/20 06:16:41;;;;;;;;;;;;;;;-2.44;100.00;102751.38;5020523;28;20411;-70
2024/01/20 06:19:06;;;;;;;;;;;;;;;-2.41;100.00;102747.25;5019961;28;19956;-70
2024/01/20 06:21:32;;;;;;;;;;;;;;;-2.40;100.00;102749.03;5054055;28;20031;-70
2024/01/20 06:23:57;;;;;;;;;;;;;;;-2.39;100.00;102749.16;5064099;28;19970;-70
2024/01/20 06:26:22;;;;;;;;;;;;;;;-2.41;100.00;102739.53;5055419;28;20344;-70
2024/01/20 06:28:49;;;;;;;;;;;;;;;-2.41;100.00;102734.41;5047834;28;20363;-71
2024/01/20 06:31:25;;;;;;;;;;;;;;;-2.38;100.00;102745.81;5073613;28;19927;-71
2024/01/20 06:33:51;;;;;;;;;;;;;;;-2.40;100.00;102749.91;5052533;28;19966;-70
2024/01/20 06:36:16;;;;;;;;;;;;;;;-2.47;100.00;102747.69;5052125;28;20388;-70
2024/01/20 06:38:42;;;;;;;;;;;;;;;-2.50;100.00;102747.47;5047658;28;19963;-71
2024/01/20 06:41:07;;;;;;;;;;;;;;;-2.55;100.00;102757.41;5041414;28;19920;-70
2024/01/20 06:43:32;;;;;;;;;;;;;;;-2.56;100.00;102749.59;5039388;28;19928;-70
2024/01/20 06:45:59;;;;;;;;;;;;;;;-2.54;100.00;102759.22;5037605;28;19924;-70
2024/01/20 06:48:26;;;;;;;;;;;;;;;-2.51;100.00;102759.44;5056225;28;19927;-70
2024/01/20 06:50:51;;;;;;;;;;;;;;;-2.40;100.00;102761.88;5041408;28;20331;-70
2024/01/20 06:53:16;;;;;;;;;;;;;;;-2.45;100.00;102764.13;5056796;28;20003;-70
2024/01/20 06:55:42;;;;;;;;;;;;;;;-2.40;100.00;102762.75;5065506;28;19943;-70
2024/01/20 06:58:08;;;;;;;;;;;;;;;-2.44;100.00;102764.22;5043239;28;20403;-70
2024/01/20 07:00:33;;;;;;;;;;;;;;;-2.47;100.00;102771.72;5055003;28;19921;-70
2024/01/20 07:02:59;;;;;;;;;;;;;;;-2.45;100.00;102777.84;5053819;28;19927;-70
2024/01/20 07:05:24;;;;;;;;;;;;;;;-2.39;100.00;102779.06;5074007;28;20343;-70
2024/01/20 07:07:49;;;;;;;;;;;;;;;-2.42;100.00;102773.72;5063617;28;19921;-69
2024/01/20 07:10:15;;;;;;;;;;;;;;;-2.44;100.00;102774.50;5037585;28;19929;-69
2024/01/20 07:12:40;;;;;;;;;;;;;;;-2.41;100.00;102770.34;5041344;28;19932;-69
2024/01/20 07:15:08;;;;;;;;;;;;;;;-2.44;100.00;102769.34;5030502;28;19978;-69
2024/01/20 07:17:33;;;;;;;;;;;;;;;-2.40;100.00;102777.28;5040090;28;19920;-69
2024/01/20 07:19:59;;;;;;;;;;;;;;;-2.39;100.00;102773.94;5038774;28;19920;-69
2024/01/20 07:22:25;;;;;;;;;;;;;;;-2.38;100.00;102773.16;5067574;28;19913;-69
2024/01/20 07:24:50;;;;;;;;;;;;;;;-2.40;100.00;102779.84;5055093;28;20631;-69
2024/01/20 07:27:15;;;;;;;;;;;;;;;-2.35;100.00;102783.66;5036484;28;19955;-69
2024/01/20 07:29:41;;;;;;;;;;;;;;;-2.38;100.00;102778.31;5053783;28;19920;-69
2024/01/20 07:32:07;;;;;;;;;;;;;;;-2.37;100.00;102772.38;5080040;23;19925;-69
2024/01/20 07:34:32;;;;;;;;;;;;;;;-2.39;100.00;102779.97;5064704;28;19967;-69
2024/01/20 07:36:57;;;;;;;;;;;;;;;-2.32;100.00;102777.03;5039928;28;19916;-68
2024/01/20 07:39:23;;;;;;;;;;;;;;;-2.38;100.00;102779.19;5032037;28;19928;-69
2024/01/20 07:41:49;;;;;;;;;;;;;;;-2.32;100.00;102791.56;5055020;28;19925;-69
2024/01/20 07:44:17;;;;;;;;;;;;;;;-2.33;100.00;102790.69;5055163;28;19924;-69
2024/01/20 07:46:42;;;;;;;;;;;;;;;-2.31;100.00;102783.09;5062409;28;20256;-69
2024/01/20 07:49:08;;;;;;;;;;;;;;;-2.36;100.00;102784.44;5049157;28;19932;-68
2024/01/20 07:51:34;;;;;;;;;;;;;;;-2.34;100.00;102790.56;5038446;28;19923;-68
2024/01/20 07:53:59;;;;;;;;;;;;;;;-2.37;100.00;102798.03;5052020;28;19927;-68
2024/01/20 07:56:27;;;;;;;;;;;;;;;-2.38;100.00;102794.59;5063427;28;19921;-68
2024/01/20 07:58:53;;;;;;;;;;;;;;;-2.38;100.00;102796.28;5072249;28;20074;-69
2024/01/20 08:01:19;;;;;;;;;;;;;;;-2.32;100.00;102801.84;5039891;28;19939;-68
2024/01/20 08:03:45;;;;;;;;;;;;;;;-2.37;100.00;102813.44;5046560;28;20368;-68
2024/01/20 08:06:10;;;;;;;;;;;;;;;-2.38;100.00;102803.97;5052784;28;19947;-69
2024/01/20 08:08:36;;;;;;;;;;;;;;;-2.30;100.00;102815.69;5054077;28;19925;-69
2024/01/20 08:11:01;;;;;;;;;;;;;;;-2.33;100.00;102805.19;5039355;28;19928;-68
2024/01/20 08:13:29;;;;;;;;;;;;;;;-2.32;100.00;102795.03;5041441;28;20331;-69
2024/01/20 08:15:57;;;;;;;;;;;;;;;-2.36;100.00;102802.41;5048057;28;20336;-69
2024/01/20 08:18:23;;;;;;;;;;;;;;;-2.36;100.00;102802.41;5051460;28;20020;-69
2024/01/20 08:20:48;;;;;;;;;;;;;;;-2.36;100.00;102807.53;5056145;28;20342;-69
2024/01/20 08:23:15;;;;;;;;;;;;;;;-2.35;100.00;102810.22;5037677;28;19927;-69
2024/01/20 08:25:40;;;;;;;;;;;;;;;-2.35;100.00;102820.50;5036922;28;20027;-69
2024/01/20 08:28:06;;;;;;;;;;;;;;;-2.35;100.00;102804.19;5053902;28;20015;-69
2024/01/20 08:30:32;;;;;;;;;;;;;;;-2.33;100.00;102812.88;5038775;28;20287;-69
2024/01/20 08:32:57;;;;;;;;;;;;;;;-2.33;100.00;102810.31;5041289;28;20007;-69
2024/01/20 08:35:23;;;;;;;;;;;;;;;-2.30;100.00;102815.69;5052172;28;19928;-69
2024/01/20 08:37:48;;;;;;;;;;;;;;;-2.26;100.00;102820.25;5051723;28;19919;-69
2024/01/20 08:40:13;;;;;;;;;;;;;;;-2.25;100.00;102821.16;5031272;28;19920;-69
2024/01/20 08:42:39;;;;;;;;;;;;;;;-2.19;100.00;102831.88;5035001;28;20260;-69
2024/01/20 08:45:04;;;;;;;;;;;;;;;-2.16;100.00;102826.97;5057090;28;19976;-69
2024/01/20 08:47:29;;;;;;;;;;;;;;;-2.15;100.00;102826.19;5053033;28;19967;-69
2024/01/20 08:49:55;;;;;;;;;;;;;;;-2.10;100.00;102830.88;5062060;28;19951;-69
2024/01/20 08:52:20;;;;;;;;;;;;;;;-2.07;100.00;102842.13;5038594;28;19925;-69
2024/01/20 08:54:46;;;;;;;;;;;;;;;-2.00;100.00;102834.09;5047249;28;19916;-69
2024/01/20 08:57:12;;;;;;;;;;;;;;;-2.00;100.00;102836.66;5052205;28;19951;-69
2024/01/20 08:59:37;;;;;;;;;;;;;;;-1.92;100.00;102836.41;5061581;28;19917;-69
2024/01/20 09:02:03;;;;;;;;;;;;;;;-1.85;100.00;102842.91;5038685;28;20396;-69
2024/01/20 09:04:29;;;;;;;;;;;;;;;-1.82;100.00;102843.13;5036458;28;19923;-69
2024/01/20 09:06:54;;;;;;;;;;;;;;;-1.81;100.00;102844.91;5073935;28;19916;-69
2024/01/20 09:09:19;;;;;;;;;;;;;;;-1.81;100.00;102838.84;5061983;28;20415;-69
2024/01/20 09:11:45;;;;;;;;;;;;;;;-1.75;100.00;102850.47;5033923;28;19924;-69
2024/01/20 09:14:10;;;;;;;;;;;;;;;-1.84;100.00;102847.25;5056672;28;20352;-68
2024/01/20 09:16:35;;;;;;;;;;;;;;;-1.81;100.00;102844.91;5054288;28;20060;-69
2024/01/20 09:19:01;;;;;;;;;;;;;;;-1.85;100.00;102840.31;5035536;28;20059;-70
2024/01/20 09:21:26;;;;;;;;;;;;;;;-1.84;100.00;102847.25;5053628;28;20007;-70
2024/01/20 09:23:51;;;;;;;;;;;;;;;-1.88;100.00;102852.06;5037461;28;19921;-70
2024/01/20 09:26:17;;;;;;;;;;;;;;;-1.82;100.00;102855.09;5054818;28;19959;-70
2024/01/20 09:28:42;;;;;;;;;;;;;;;-1.84;100.00;102851.50;5041691;28;20276;-70
2024/01/20 09:31:07;;;;;;;;;;;;;;;-1.83;100.00;102850.72;5047706;28;20350;-70
2024/01/20 09:33:33;;;;;;;;;;;;;;;-1.81;100.00;102847.47;5036825;28;19935;-70
2024/01/20 09:35:58;;;;;;;;;;;;;;;-1.68;100.00;102848.31;5035438;28;19927;-71
2024/01/20 09:38:26;;;;;;;;;;;;;;;-1.66;100.00;102850.22;5048737;28;19919;-70
2024/01/20 09:40:52;;;;;;;;;;;;;;;-1.73;100.00;102857.41;5037672;28;19924;-71
2024/01/20 09:43:18;;;;;;;;;;;;;;;-1.69;100.00;102854.28;5037877;28;19994;-71
2024/01/20 09:45:45;;;;;;;;;;;;;;;-1.66;100.00;102854.50;5048595;28;19916;-70
2024/01/20 09:48:10;;;;;;;;;;;;;;;-1.69;100.00;102856.84;5050300;28;19920;-71
2024/01/20 09:50:36;;;;;;;;;;;;;;;-1.62;100.00;102852.22;5067828;28;20287;-70
2024/01/20 09:53:12;;;;;;;;;;;;;;;-1.60;100.00;102860.06;5082071;28;20279;-70
2024/01/20 09:55:37;;;;;;;;;;;;;;;-1.56;100.00;102867.19;5054681;28;20436;-70
2024/01/20 09:58:03;;;;;;;;;;;;;;;-1.53;100.00;102877.69;5051819;28;20015;-70
2024/01/20 10:00:29;;;;;;;;;;;;;;;-1.49;100.00;102873.69;5046860;28;20031;-71
2024/01/20 10:02:55;;;;;;;;;;;;;;;-1.40;100.00;102884.59;5042933;28;20331;-70
2024/01/20 10:05:23;;;;;;;;;;;;;;;-1.42;100.00;102876.78;5037237;28;19924;-70
2024/01/20 10:07:49;;;;;;;;;;;;;;;-1.41;100.00;102881.13;5046283;28;19917;-70
2024/01/20 10:10:20;;;;;;;;;;;;;;;-1.40;100.00;102864.91;5044811;28;19943;-70
2024/01/20 10:12:47;;;;;;;;;;;;;;;-1.40;100.00;102870.03;5045770;28;19917;-71
2024/01/20 10:15:12;;;;;;;;;;;;;;;-1.30;100.00;102865.56;5050965;28;19913;-71
2024/01/20 10:17:37;;;;;;;;;;;;;;;-1.28;100.00;102874.25;5045419;28;20300;-71
2024/01/20 10:20:03;;;;;;;;;;;;;;;-1.32;100.00;102874.81;5038740;28;19933;-71
2024/01/20 10:22:28;;;;;;;;;;;;;;;-1.32;100.00;102882.53;5033178;28;19921;-71
2024/01/20 10:24:54;;;;;;;;;;;;;;;-1.27;100.00;102876.06;5029071;28;19921;-71
2024/01/20 10:27:25;;;;;;;;;;;;;;;-1.24;100.00;102876.25;5035726;28;20376;-71
2024/01/20 10:29:50;;;;;;;;;;;;;;;-1.19;100.00;102882.63;5039943;28;19931;-72
2024/01/20 10:32:16;;;;;;;;;;;;;;;-1.27;100.00;102878.63;5049531;28;19921;-72
2024/01/20 10:34:44;;;;;;;;;;;;;;;-1.16;100.00;102882.84;5034140;28;19916;-72
2024/01/20 10:37:13;;;;;;;;;;;;;;;-1.08;100.00;102889.41;5036740;28;19955;-72
2024/01/20 10:39:45;;;;;;;;;;;;;;;-1.08;100.00;102879.13;5049275;28;19912;-72
2024/01/20 10:42:12;;;;;;;;;;;;;;;-0.94;100.00;102874.00;5046239;28;19925;-72
2024/01/20 10:44:44;;;;;;;;;;;;;;;-0.70;100.00;102862.78;5043704;28;19959;-72
2024/01/20 10:47:21;;;;;;;;;;;;;;;-0.61;100.00;102862.50;5052816;28;20003;-72
2024/01/20 10:49:48;;;;;;;;;;;;;;;-0.43;100.00;102868.00;5050013;28;20444;-72
2024/01/20 10:52:14;;;;;;;;;;;;;;;-0.31;100.00;102874.75;5043255;28;19923;-73
2024/01/20 10:54:43;;;;;;;;;;;;;;;-0.32;100.00;102871.25;5040342;28;20007;-72
2024/01/20 10:57:09;;;;;;;;;;;;;;;-0.52;100.00;102867.38;5053091;28;20386;-72
2024/01/20 10:59:37;;;;;;;;;;;;;;;-0.60;100.00;102871.16;5050318;28;20388;-73
2024/01/20 11:02:04;;;;;;;;;;;;;;;-0.67;100.00;102871.53;5052776;28;19952;-72
2024/01/20 11:04:34;;;;;;;;;;;;;;;-0.59;100.00;102878.06;5034819;28;19967;-72
2024/01/20 11:06:59;;;;;;;;;;;;;;;-0.68;100.00;102869.72;5049587;28;20330;-73
2024/01/20 11:09:25;;;;;;;;;;;;;;;-0.63;100.00;102874.41;5022070;28;19925;-73
2024/01/20 11:12:01;;;;;;;;;;;;;;;-0.62;100.00;102872.72;5045135;28;19921;-73
2024/01/20 11:14:27;;;;;;;;;;;;;;;-0.48;100.00;102883.94;5040742;28;19916;-71
2024/01/20 11:16:53;;;;;;;;;;;;;;;-0.43;100.00;102872.22;5051743;28;19975;-71
2024/01/20 11:19:18;;;;;;;;;;;;;;;-0.25;100.00;102878.59;5021827;28;20355;-70
2024/01/20 11:21:43;;;;;;;;;;;;;;;-0.12;100.00;102874.25;5052607;28;19920;-68
2024/01/20 11:24:09;;;;;;;;;;;;;;;-0.25;100.00;102868.28;5032562;28;19921;-69
2024/01/20 11:26:35;;;;;;;;;;;;;;;-0.43;100.00;102862.84;5036096;28;19924;-68
2024/01/20 11:29:01;;;;;;;;;;;;;;;-0.44;100.00;102855.91;5050885;28;19975;-70
2024/01/20 11:31:32;;;;;;;;;;;;;;;-0.40;100.00;102857.88;5033255;28;19983;-70
2024/01/20 11:33:59;;;;;;;;;;;;;;;-0.48;100.00;102853.91;5050734;28;19921;-68
2024/01/20 11:36:27;;;;;;;;;;;;;;;-0.31;100.00;102851.56;5053885;28;20343;-68
2024/01/20 11:38:52;;;;;;;;;;;;;;;0.45;100.00;102839.19;5045664;28;19917;-68
2024/01/20 11:41:18;;;;;;;;;;;;;;;1.31;96.04;102834.00;5060683;28;19916;-68
2024/01/20 11:43:44;;;;;;;;;;;;;;;1.95;94.51;102833.28;5059840;28;20375;-68
2024/01/20 11:46:09;;;;;;;;;;;;;;;1.96;92.40;102826.44;5038627;28;19928;-66
2024/01/20 11:48:34;;;;;;;;;;;;;;;1.69;92.57;102835.28;5062906;28;19934;-66
2024/01/20 11:51:01;;;;;;;;;;;;;;;1.70;93.08;102826.75;5035653;28;19917;-66
2024/01/20 11:53:26;;;;;;;;;;;;;;;1.68;91.91;102825.78;5049222;28;20442;-66
2024/01/20 11:55:58;;;;;;;;;;;;;;;1.93;91.94;102834.91;5054029;28;19960;-68
2024/01/20 11:58:24;;;;;;;;;;;;;;;2.82;90.03;102822.41;5049691;28;19927;-66
2024/01/20 12:00:51;;;;;;;;;;;;;;;3.52;86.53;102818.97;5041707;28;20380;-66
2024/01/20 12:03:19;;;;;;;;;;;;;;;4.23;82.93;102814.56;5054563;28;20399;-66
2024/01/20 12:05:44;;;;;;;;;;;;;;;5.41;81.91;102813.63;5052650;28;20004;-66
2024/01/20 12:08:10;;;;;;;;;;;;;;;6.73;80.90;102814.38;5045800;28;20048;-66
2024/01/20 12:10:35;;;;;;;;;;;;;;;7.64;74.13;102814.81;5039678;28;19920;-67
2024/01/20 12:13:04;;;;;;;;;;;;;;;8.44;74.20;102806.81;5042823;28;19924;-66
2024/01/20 12:15:33;;;;;;;;;;;;;;;9.18;71.35;102815.81;5054545;28;19948;-66
2024/01/20 12:17:58;;;;;;;;;;;;;;;9.46;64.24;102816.47;5035861;28;19924;-67
2024/01/20 12:20:24;;;;;;;;;;;;;;;9.57;62.79;102807.16;5047037;28;20387;-67